Time;durP1;ratioP1;P1;durP2;ratioP2;P2;SDS_P1;SDS_P2;PMS_P1;PMS_P2;Temp;Humidity;BMP_temperature;BMP_pressure;BME280_temperature;BME280_humidity;BME280_pressure;Samples;Min_cycle;Max_cycle;Signal;HPM_P1;HPM_P2
2021/06/29 00:02:14;;;;;;;13.07;11.88;;;19.00;99.90;;;;;;5065959;28;20033;-93
2021/06/29 00:04:40;;;;;;;15.35;13.00;;;19.00;99.90;;;;;;5068587;28;20029;-91
2021/06/29 00:07:06;;;;;;;14.63;13.20;;;19.10;99.90;;;;;;5054499;28;20100;-95
2021/06/29 00:09:32;;;;;;;15.60;14.00;;;19.10;99.90;;;;;;5072479;28;20029;-90
2021/06/29 00:11:58;;;;;;;14.43;13.00;;;19.10;99.90;;;;;;5071352;28;20029;-94
2021/06/29 00:14:24;;;;;;;14.77;13.35;;;19.10;99.90;;;;;;5053150;28;20032;-92
2021/06/29 00:16:50;;;;;;;13.73;12.10;;;19.00;99.90;;;;;;5071622;28;20051;-90
2021/06/29 00:19:15;;;;;;;14.38;12.93;;;19.00;99.90;;;;;;5070700;28;20454;-90
2021/06/29 00:21:41;;;;;;;15.55;12.80;;;19.10;99.90;;;;;;5070020;28;20083;-92
2021/06/29 00:24:07;;;;;;;19.60;17.50;;;19.00;99.90;;;;;;5051525;28;20047;-91
2021/06/29 00:26:33;;;;;;;19.23;15.77;;;19.00;99.90;;;;;;5051884;28;20025;-91
2021/06/29 00:29:02;;;;;;;16.58;14.50;;;19.00;99.90;;;;;;5053214;28;20472;-83
2021/06/29 00:31:27;;;;;;;16.33;14.57;;;18.90;99.90;;;;;;5089345;28;20037;-93
2021/06/29 00:33:53;;;;;;;15.48;13.95;;;18.90;99.90;;;;;;5059295;28;20033;-95
2021/06/29 00:36:19;;;;;;;15.13;13.63;;;18.90;99.90;;;;;;5056711;28;20040;-94
2021/06/29 00:38:45;;;;;;;14.32;12.88;;;18.90;99.90;;;;;;5071915;28;20060;-95
2021/06/29 00:41:11;;;;;;;15.02;13.52;;;19.00;99.90;;;;;;5071138;28;20480;-95
2021/06/29 00:43:37;;;;;;;15.75;14.10;;;19.00;99.90;;;;;;5054390;28;20036;-94
2021/06/29 00:46:23;;;;;;;15.18;13.77;;;19.00;99.90;;;;;;5070870;28;20111;-91
2021/06/29 00:48:50;;;;;;;15.23;13.63;;;19.10;99.90;;;;;;5006790;28;20085;-94
2021/06/29 00:51:17;;;;;;;15.88;14.27;;;19.00;99.90;;;;;;4992267;28;20458;-93
2021/06/29 00:53:44;;;;;;;15.13;13.52;;;19.00;99.90;;;;;;4974932;28;20042;-94
2021/06/29 00:56:13;;;;;;;17.73;14.98;;;19.00;99.90;;;;;;4960293;28;20031;-95
2021/06/29 00:58:43;;;;;;;15.38;13.02;;;19.00;99.90;;;;;;4971129;28;20131;-95
2021/06/29 01:01:09;;;;;;;16.80;14.95;;;19.00;99.90;;;;;;4971407;28;20042;-93
2021/06/29 01:03:39;;;;;;;17.75;15.90;;;19.10;99.90;;;;;;4971101;28;20042;-91
2021/06/29 01:06:09;;;;;;;17.35;15.55;;;19.00;99.90;;;;;;4954658;28;20042;-94
2021/06/29 01:08:35;;;;;;;17.35;15.13;;;19.00;99.90;;;;;;4987570;28;20058;-94
2021/06/29 01:11:01;;;;;;;19.55;16.38;;;19.00;99.90;;;;;;4973996;28;20041;-93
2021/06/29 01:13:31;;;;;;;16.95;15.15;;;19.00;99.90;;;;;;5006740;28;20055;-93
2021/06/29 01:15:59;;;;;;;18.40;15.85;;;19.00;99.90;;;;;;4989484;28;20044;-95
2021/06/29 01:18:24;;;;;;;15.43;13.80;;;18.90;99.90;;;;;;4990225;28;20042;-93
2021/06/29 01:20:50;;;;;;;17.42;15.40;;;18.90;99.90;;;;;;4974185;28;20102;-94
2021/06/29 01:23:20;;;;;;;17.48;14.68;;;18.90;99.90;;;;;;4990262;28;20035;-93
2021/06/29 01:25:46;;;;;;;16.67;14.93;;;18.90;99.90;;;;;;5034256;28;20064;-95
2021/06/29 01:28:30;;;;;;;16.77;14.98;;;18.90;99.90;;;;;;5050298;28;20100;-95
2021/06/29 01:31:15;;;;;;;17.33;15.52;;;18.80;99.90;;;;;;5034639;28;20025;-95
2021/06/29 01:33:43;;;;;;;16.65;14.90;;;18.80;99.90;;;;;;5068022;28;20052;-94
2021/06/29 01:36:19;;;;;;;15.73;14.18;;;18.80;99.90;;;;;;5068015;28;20519;-96
2021/06/29 01:38:46;;;;;;;16.02;14.27;;;18.80;99.90;;;;;;5049817;28;20495;-94
2021/06/29 01:41:13;;;;;;;16.95;15.15;;;18.90;99.90;;;;;;5067753;28;20056;-94
2021/06/29 01:43:46;;;;;;;17.50;15.70;;;18.90;99.90;;;;;;5067579;28;20082;-95
2021/06/29 01:46:36;;;;;;;18.33;14.90;;;18.90;99.90;;;;;;5033211;28;20035;-93
2021/06/29 01:49:02;;;;;;;17.35;15.48;;;18.90;99.90;;;;;;4989401;28;20562;-91
2021/06/29 01:51:27;;;;;;;17.45;14.80;;;18.90;99.90;;;;;;5005892;28;20049;-96
2021/06/29 01:53:53;;;;;;;18.90;16.38;;;18.90;99.90;;;;;;5005862;28;20048;-93
2021/06/29 01:56:27;;;;;;;22.35;17.05;;;19.00;99.90;;;;;;5021200;28;20100;-94
2021/06/29 01:58:54;;;;;;;19.02;17.08;;;19.00;99.90;;;;;;5025451;28;20088;-93
2021/06/29 02:01:21;;;;;;;19.00;16.92;;;18.90;99.90;;;;;;5025432;28;20105;-95
2021/06/29 02:03:48;;;;;;;18.25;16.35;;;18.90;99.90;;;;;;5025472;28;20030;-94
2021/06/29 02:06:14;;;;;;;18.40;16.50;;;18.90;99.90;;;;;;5008699;28;20042;-94
2021/06/29 02:08:41;;;;;;;18.55;16.65;;;18.90;99.90;;;;;;5009450;28;20026;-92
2021/06/29 02:11:06;;;;;;;17.80;15.88;;;18.90;99.90;;;;;;5022127;28;20038;-94
2021/06/29 02:13:32;;;;;;;16.67;14.98;;;18.90;99.90;;;;;;5005486;28;20034;-95
2021/06/29 02:15:59;;;;;;;19.08;16.42;;;18.90;99.90;;;;;;4973003;28;20484;-96
2021/06/29 02:19:25;;;;;;;;;;;;;;;;;;;;;
2021/06/29 02:22:55;;;;;;;17.92;16.13;;;18.80;99.90;;;;;;5004762;28;20030;-93
2021/06/29 02:25:40;;;;;;;22.15;15.20;;;18.80;99.90;;;;;;4996519;28;20077;-92
2021/06/29 02:28:05;;;;;;;18.60;16.08;;;18.90;99.90;;;;;;5024663;28;20029;-90
2021/06/29 02:30:31;;;;;;;17.75;15.60;;;18.90;99.90;;;;;;5024885;28;20042;-89
2021/06/29 02:32:57;;;;;;;21.33;18.00;;;18.90;99.90;;;;;;5025031;28;20117;-88
2021/06/29 02:35:23;;;;;;;19.13;15.48;;;19.00;99.90;;;;;;5041116;28;20042;-88
2021/06/29 02:37:48;;;;;;;18.42;15.52;;;18.90;99.90;;;;;;5041069;28;20040;-87
2021/06/29 02:44:37;;;;;;;15.02;12.60;;;18.90;99.90;;;;;;4956443;28;20110;-87
2021/06/29 02:47:03;;;;;;;17.70;15.90;;;19.00;99.90;;;;;;5024122;28;20046;-86
2021/06/29 02:49:29;;;;;;;20.38;18.13;;;19.00;99.90;;;;;;5007988;28;20093;-84
2021/06/29 02:51:55;;;;;;;16.42;14.15;;;18.90;99.90;;;;;;5023951;28;20049;-85
2021/06/29 02:54:20;;;;;;;18.48;15.90;;;18.90;99.90;;;;;;5024158;28;20041;-83
2021/06/29 02:56:46;;;;;;;17.83;15.45;;;18.90;99.90;;;;;;5061365;28;20037;-85
2021/06/29 02:59:14;;;;;;;19.02;15.88;;;18.90;99.90;;;;;;5068033;28;20400;-87
2021/06/29 03:01:40;;;;;;;19.25;16.30;;;18.90;99.90;;;;;;5068306;28;20059;-85
2021/06/29 03:04:07;;;;;;;22.88;17.65;;;18.90;99.90;;;;;;5067830;28;20056;-85
2021/06/29 03:06:33;;;;;;;18.88;16.17;;;18.90;99.90;;;;;;5067852;28;20067;-85
2021/06/29 03:09:00;;;;;;;19.15;15.18;;;18.90;99.90;;;;;;5085956;28;20092;-84
2021/06/29 03:11:26;;;;;;;19.08;15.65;;;18.90;99.90;;;;;;5051131;28;20035;-86
2021/06/29 03:13:52;;;;;;;19.83;15.95;;;18.90;99.90;;;;;;5067656;28;20029;-84
2021/06/29 03:16:18;;;;;;;21.20;16.77;;;18.80;99.90;;;;;;5051773;28;20038;-83
2021/06/29 03:18:44;;;;;;;18.13;15.48;;;18.80;99.90;;;;;;5068369;28;20060;-85
2021/06/29 03:21:10;;;;;;;18.17;15.98;;;18.70;99.90;;;;;;5052066;28;20492;-85
2021/06/29 03:23:36;;;;;;;22.52;17.02;;;18.70;99.90;;;;;;5051837;28;20025;-83
2021/06/29 03:26:02;;;;;;;20.20;16.83;;;18.80;99.90;;;;;;5068291;28;20039;-85
2021/06/29 03:28:28;;;;;;;19.05;16.00;;;18.80;99.90;;;;;;5068255;28;20055;-86
2021/06/29 03:30:54;;;;;;;18.52;15.77;;;18.80;99.90;;;;;;5051548;28;20043;-84
2021/06/29 03:33:19;;;;;;;17.55;15.48;;;18.80;99.90;;;;;;5051415;28;20029;-85
2021/06/29 03:35:45;;;;;;;20.92;17.30;;;18.80;99.90;;;;;;5051415;28;20029;-82
2021/06/29 03:38:11;;;;;;;18.05;16.15;;;18.80;99.90;;;;;;5051437;28;20028;-85
2021/06/29 03:40:37;;;;;;;18.45;16.45;;;18.80;99.90;;;;;;5071010;28;20062;-85
2021/06/29 03:43:03;;;;;;;18.10;15.80;;;18.80;99.90;;;;;;5072345;28;20033;-86
2021/06/29 03:45:28;;;;;;;22.40;16.85;;;18.80;99.90;;;;;;5055784;28;20036;-86
2021/06/29 03:47:54;;;;;;;16.63;13.85;;;18.80;99.90;;;;;;5072107;28;20052;-85
2021/06/29 03:50:20;;;;;;;19.38;16.67;;;18.80;99.90;;;;;;5055694;28;20029;-86
2021/06/29 03:52:46;;;;;;;19.67;17.33;;;18.70;99.90;;;;;;5071905;28;20703;-85
2021/06/29 03:55:11;;;;;;;20.88;16.88;;;18.80;99.90;;;;;;5055497;28;20087;-85
2021/06/29 03:57:38;;;;;;;17.35;15.50;;;18.80;99.90;;;;;;5072087;28;20033;-83
2021/06/29 04:00:07;;;;;;;19.23;17.05;;;18.80;99.90;;;;;;5054831;28;20045;-85
2021/06/29 04:02:34;;;;;;;22.23;16.83;;;18.80;99.90;;;;;;5055701;28;20025;-87
2021/06/29 04:04:59;;;;;;;22.27;17.65;;;18.80;99.90;;;;;;5055262;28;20541;-87
2021/06/29 04:07:29;;;;;;;22.90;18.55;;;18.90;99.90;;;;;;5056602;28;20096;-87
2021/06/29 04:09:55;;;;;;;21.20;16.40;;;18.80;99.90;;;;;;5055645;28;20033;-87
2021/06/29 04:12:20;;;;;;;19.58;17.23;;;18.80;99.90;;;;;;5072093;28;20032;-86
2021/06/29 04:14:46;;;;;;;18.02;15.68;;;18.70;99.90;;;;;;5071411;28;20114;-84
2021/06/29 04:17:13;;;;;;;17.17;14.07;;;18.80;99.90;;;;;;5070961;28;20114;-86
2021/06/29 04:19:40;;;;;;;19.45;17.15;;;18.80;99.90;;;;;;5070980;28;20063;-85
2021/06/29 04:22:07;;;;;;;17.92;15.40;;;18.90;99.90;;;;;;5070953;28;20361;-85
2021/06/29 04:24:32;;;;;;;17.67;14.95;;;18.90;99.90;;;;;;5071283;28;20092;-86
2021/06/29 04:26:58;;;;;;;19.55;16.08;;;18.80;99.90;;;;;;5070846;28;20058;-87
2021/06/29 04:29:30;;;;;;;16.83;14.82;;;18.80;99.90;;;;;;5071143;28;20036;-86
2021/06/29 04:31:56;;;;;;;17.60;15.70;;;18.90;99.90;;;;;;5071416;28;20054;-87
2021/06/29 04:34:22;;;;;;;17.65;15.60;;;18.90;99.90;;;;;;5048624;28;20029;-87
2021/06/29 04:36:47;;;;;;;19.92;16.85;;;19.00;99.90;;;;;;5040599;28;20033;-88
2021/06/29 04:39:13;;;;;;;22.52;17.42;;;19.00;99.90;;;;;;5070938;28;20044;-87
2021/06/29 04:41:39;;;;;;;24.55;17.98;;;19.00;99.90;;;;;;5051808;28;20028;-89
2021/06/29 04:44:05;;;;;;;24.15;17.85;;;19.00;99.90;;;;;;5087113;28;20041;-89
2021/06/29 04:46:32;;;;;;;27.40;18.73;;;19.10;99.90;;;;;;5054014;28;20032;-83
2021/06/29 04:49:01;;;;;;;26.48;19.45;;;19.00;99.90;;;;;;5058657;28;20060;-89
2021/06/29 04:51:26;;;;;;;22.33;17.48;;;19.00;99.90;;;;;;5033543;28;20033;-86
2021/06/29 04:53:52;;;;;;;24.42;17.48;;;19.00;99.90;;;;;;5033580;28;20032;-85
2021/06/29 04:56:18;;;;;;;23.90;17.90;;;19.00;99.90;;;;;;5033758;28;20029;-83
2021/06/29 04:58:53;;;;;;;23.80;16.60;;;19.10;99.90;;;;;;5050447;28;20094;-89
2021/06/29 05:01:22;;;;;;;21.60;15.77;;;19.20;99.90;;;;;;5034520;28;20041;-90
2021/06/29 05:03:51;;;;;;;22.17;16.02;;;19.20;99.90;;;;;;5065522;28;20021;-89
2021/06/29 05:06:17;;;;;;;22.38;16.10;;;19.20;99.90;;;;;;5053616;28;20035;-89
2021/06/29 05:08:44;;;;;;;21.17;15.75;;;19.20;99.90;;;;;;5069664;28;20452;-86
2021/06/29 05:11:10;;;;;;;26.35;17.70;;;19.20;99.90;;;;;;5058436;28;20036;-89
2021/06/29 05:13:36;;;;;;;24.35;18.67;;;19.30;99.90;;;;;;5067606;28;20024;-88
2021/06/29 05:16:01;;;;;;;23.23;17.50;;;19.30;99.90;;;;;;5070773;28;20039;-89
2021/06/29 05:18:31;;;;;;;26.58;18.08;;;19.40;99.90;;;;;;5054246;28;20111;-90
2021/06/29 05:20:56;;;;;;;23.13;17.15;;;19.40;99.90;;;;;;5069903;28;20484;-90
2021/06/29 05:23:22;;;;;;;25.33;18.25;;;19.40;99.90;;;;;;5070204;28;20088;-88
2021/06/29 05:25:48;;;;;;;24.05;18.52;;;19.40;99.90;;;;;;5087764;28;20104;-89
2021/06/29 05:28:20;;;;;;;24.10;16.52;;;19.40;99.90;;;;;;5053508;28;20028;-89
2021/06/29 05:30:47;;;;;;;19.35;15.25;;;19.40;99.90;;;;;;5053665;28;20414;-88
2021/06/29 05:33:14;;;;;;;21.17;13.65;;;19.50;99.90;;;;;;5053331;28;20031;-89
2021/06/29 05:35:40;;;;;;;22.85;16.38;;;19.60;99.90;;;;;;5069969;28;20032;-89
2021/06/29 05:38:25;;;;;;;22.20;15.55;;;19.60;99.90;;;;;;5069966;28;20187;-90
2021/06/29 05:40:51;;;;;;;20.38;15.82;;;19.70;99.90;;;;;;5087701;28;20048;-89
2021/06/29 05:43:16;;;;;;;18.98;14.02;;;19.80;99.90;;;;;;5069845;28;20029;-89
2021/06/29 05:45:42;;;;;;;22.02;16.38;;;19.80;99.90;;;;;;5052960;28;20032;-88
2021/06/29 05:48:10;;;;;;;19.92;17.00;;;19.80;99.90;;;;;;5052868;28;20048;-89
2021/06/29 05:50:35;;;;;;;22.42;16.17;;;19.90;99.90;;;;;;5069557;28;20116;-88
2021/06/29 05:53:01;;;;;;;21.55;16.42;;;20.00;99.90;;;;;;5069621;28;20028;-88
2021/06/29 05:55:27;;;;;;;21.20;15.75;;;20.00;99.90;;;;;;5069422;28;20429;-89
2021/06/29 05:57:54;;;;;;;18.42;14.55;;;20.00;99.90;;;;;;5069348;28;20032;-86
2021/06/29 06:00:20;;;;;;;23.58;16.80;;;20.10;99.90;;;;;;5087202;28;20036;-87
2021/06/29 06:02:45;;;;;;;20.48;15.15;;;20.00;99.90;;;;;;5052127;28;20052;-88
2021/06/29 06:05:11;;;;;;;20.92;15.40;;;20.00;99.90;;;;;;5069468;28;20032;-88
2021/06/29 06:07:39;;;;;;;18.83;15.05;;;20.10;99.90;;;;;;5052778;28;20381;-89
2021/06/29 06:10:06;;;;;;;21.30;15.93;;;20.10;99.90;;;;;;5052935;28;20033;-89
2021/06/29 06:12:31;;;;;;;19.25;13.93;;;20.10;99.90;;;;;;5068971;28;20032;-90
2021/06/29 06:14:57;;;;;;;16.98;13.57;;;20.00;99.90;;;;;;5069160;28;20047;-89
2021/06/29 06:17:27;;;;;;;19.92;13.68;;;20.10;99.90;;;;;;5069049;28;20093;-89
2021/06/29 06:19:54;;;;;;;19.55;14.95;;;20.20;99.90;;;;;;5068883;28;20041;-87
2021/06/29 06:22:20;;;;;;;18.73;15.85;;;20.30;99.90;;;;;;5068455;28;20123;-85
2021/06/29 06:24:46;;;;;;;21.75;14.52;;;20.20;99.90;;;;;;5068117;28;20036;-84
2021/06/29 06:27:16;;;;;;;20.40;15.35;;;20.10;99.90;;;;;;5068153;28;20048;-81
2021/06/29 06:29:41;;;;;;;21.40;16.15;;;20.00;99.90;;;;;;5068153;28;20033;-87
2021/06/29 06:32:08;;;;;;;20.88;15.88;;;20.10;99.90;;;;;;5068022;28;20046;-83
2021/06/29 06:34:34;;;;;;;16.20;12.82;;;20.10;99.90;;;;;;5067985;28;20067;-83
2021/06/29 06:37:01;;;;;;;22.23;17.55;;;20.10;99.90;;;;;;5068080;28;20029;-84
2021/06/29 06:39:26;;;;;;;18.80;15.25;;;19.90;99.90;;;;;;5085768;28;20040;-82
2021/06/29 06:41:52;;;;;;;22.60;17.10;;;20.00;99.90;;;;;;5068011;28;20042;-82
2021/06/29 06:44:17;;;;;;;21.33;17.60;;;20.00;99.90;;;;;;5067807;28;20043;-82
2021/06/29 06:46:43;;;;;;;22.45;16.30;;;20.00;99.90;;;;;;5067697;28;20044;-83
2021/06/29 06:49:09;;;;;;;14.77;11.65;;;20.00;99.90;;;;;;5067918;28;20040;-83
2021/06/29 06:51:34;;;;;;;19.50;14.40;;;20.00;99.90;;;;;;5067774;28;20035;-82
2021/06/29 06:54:00;;;;;;;22.38;19.30;;;19.90;99.90;;;;;;5067671;28;20378;-84
2021/06/29 06:56:26;;;;;;;24.05;18.63;;;19.80;99.90;;;;;;5067728;28;20090;-86
2021/06/29 06:58:53;;;;;;;25.88;19.73;;;19.70;99.90;;;;;;5051322;28;20024;-86
2021/06/29 07:01:19;;;;;;;23.38;18.63;;;19.80;99.90;;;;;;5068127;28;20040;-87
2021/06/29 07:03:45;;;;;;;26.10;19.98;;;19.80;99.90;;;;;;5067948;28;20194;-82
2021/06/29 07:06:14;;;;;;;27.73;20.70;;;19.80;99.90;;;;;;5050796;28;20039;-82
2021/06/29 07:08:44;;;;;;;18.13;14.57;;;19.80;99.90;;;;;;5051154;28;20025;-85
2021/06/29 07:11:09;;;;;;;;;;;19.90;99.90;;;;;;5051420;28;20096;-86
2021/06/29 07:13:35;;;;;;;22.90;18.40;;;19.80;99.90;;;;;;5050811;28;19908;-83
2021/06/29 07:16:01;;;;;;;24.80;18.00;;;19.80;99.90;;;;;;5084370;28;20036;-86
2021/06/29 07:18:28;;;;;;;19.23;14.95;;;19.60;99.90;;;;;;5050955;28;20029;-88
2021/06/29 07:20:53;;;;;;;21.88;16.95;;;19.60;99.90;;;;;;5051293;28;20040;-88
2021/06/29 07:23:19;;;;;;;25.52;20.05;;;19.50;99.90;;;;;;5051625;28;20025;-92
2021/06/29 07:25:45;;;;;;;29.25;21.05;;;19.40;99.90;;;;;;5068321;28;20064;-90
2021/06/29 07:28:13;;;;;;;24.75;18.92;;;19.40;99.90;;;;;;5068130;28;20025;-90
2021/06/29 07:30:39;;;;;;;22.65;17.55;;;19.40;99.90;;;;;;5068261;28;20032;-89
2021/06/29 07:33:06;;;;;;;30.02;20.80;;;19.50;99.90;;;;;;5051540;28;20114;-90
2021/06/29 07:35:32;;;;;;;24.92;17.48;;;19.40;99.90;;;;;;5084710;28;20075;-90
2021/06/29 07:38:01;;;;;;;30.83;21.73;;;19.60;99.90;;;;;;5066960;28;20063;-91
2021/06/29 07:40:29;;;;;;;33.33;23.47;;;19.60;99.90;;;;;;5067390;28;20040;-87
2021/06/29 07:42:59;;;;;;;28.75;20.20;;;19.60;99.90;;;;;;5083701;28;20392;-89
2021/06/29 07:45:27;;;;;;;35.58;24.63;;;19.80;99.90;;;;;;5050178;28;20119;-85
2021/06/29 07:47:55;;;;;;;34.63;24.63;;;19.60;99.90;;;;;;5050235;28;20480;-89
2021/06/29 07:50:21;;;;;;;36.05;24.60;;;19.60;99.90;;;;;;5050218;28;20056;-91
2021/06/29 07:52:47;;;;;;;35.38;25.15;;;19.60;99.90;;;;;;5085094;28;20507;-87
2021/06/29 07:55:13;;;;;;;36.90;27.67;;;19.60;99.90;;;;;;5050410;28;20021;-91
2021/06/29 07:57:39;;;;;;;39.33;27.98;;;19.60;99.90;;;;;;5050332;28;20033;-90
2021/06/29 08:00:07;;;;;;;44.58;29.23;;;19.50;99.90;;;;;;5066650;28;20067;-89
2021/06/29 08:02:38;;;;;;;45.08;30.33;;;19.40;99.90;;;;;;5067977;28;20040;-87
2021/06/29 08:05:04;;;;;;;45.75;29.45;;;19.40;99.90;;;;;;5066928;28;20565;-88
2021/06/29 08:07:30;;;;;;;43.60;31.25;;;19.30;99.90;;;;;;5050091;28;20052;-84
2021/06/29 08:09:56;;;;;;;43.42;32.00;;;19.30;99.90;;;;;;5050322;28;20369;-87
2021/06/29 08:12:22;;;;;;;33.40;24.67;;;19.30;99.90;;;;;;5052830;28;20033;-90
2021/06/29 08:14:48;;;;;;;40.67;28.88;;;19.40;99.90;;;;;;5046733;28;20047;-89
2021/06/29 08:17:14;;;;;;;35.03;25.83;;;19.40;99.90;;;;;;5030436;28;20033;-90
2021/06/29 08:19:42;;;;;;;47.90;31.02;;;19.40;99.90;;;;;;5030559;28;20048;-89
2021/06/29 08:22:09;;;;;;;46.15;31.60;;;19.40;99.90;;;;;;5030598;28;20067;-90
2021/06/29 08:24:35;;;;;;;47.65;33.45;;;19.40;99.90;;;;;;5047079;28;20055;-89
2021/06/29 08:27:01;;;;;;;43.15;30.63;;;19.40;99.90;;;;;;5050228;28;20033;-91
2021/06/29 08:29:26;;;;;;;53.53;36.25;;;19.40;99.90;;;;;;5034269;28;20468;-89
2021/06/29 08:31:52;;;;;;;50.15;34.85;;;19.40;99.90;;;;;;5033967;28;20126;-90
2021/06/29 08:34:18;;;;;;;54.33;35.78;;;19.50;99.90;;;;;;5033980;28;20029;-89
2021/06/29 08:36:43;;;;;;;51.15;34.55;;;19.40;99.90;;;;;;5033702;28;20032;-88
2021/06/29 08:39:12;;;;;;;51.35;34.25;;;19.40;99.90;;;;;;5033867;28;20048;-89
2021/06/29 08:41:38;;;;;;;50.13;33.75;;;19.40;99.90;;;;;;5033987;28;20097;-89
2021/06/29 08:44:05;;;;;;;46.88;32.97;;;19.50;99.90;;;;;;5033381;28;20040;-87
2021/06/29 08:49:28;;;;;;;55.08;36.40;;;19.30;99.90;;;;;;5007586;28;20089;-89
2021/06/29 08:51:57;;;;;;;52.58;35.80;;;19.30;99.90;;;;;;5007789;28;20030;-89
2021/06/29 08:54:25;;;;;;;50.13;32.88;;;19.30;99.90;;;;;;5007874;28;20027;-89
2021/06/29 08:56:51;;;;;;;48.50;33.13;;;19.40;99.90;;;;;;5024050;28;20042;-90
2021/06/29 08:59:16;;;;;;;53.53;35.63;;;19.30;99.90;;;;;;5007135;28;20050;-88
2021/06/29 09:01:42;;;;;;;47.85;34.83;;;19.20;99.90;;;;;;5007255;28;20031;-89
2021/06/29 09:04:07;;;;;;;43.42;30.23;;;19.20;99.90;;;;;;5007146;28;20061;-88
2021/06/29 09:06:39;;;;;;;39.17;29.05;;;19.20;99.90;;;;;;5007163;28;20054;-90
2021/06/29 09:09:21;;;;;;;40.17;28.75;;;19.20;99.90;;;;;;4990960;28;20026;-89
2021/06/29 09:11:47;;;;;;;42.90;29.25;;;19.20;99.90;;;;;;5023191;28;20030;-88
2021/06/29 09:14:17;;;;;;;42.78;30.98;;;19.30;99.90;;;;;;4990806;28;20405;-88
2021/06/29 09:16:45;;;;;;;41.58;28.17;;;19.30;99.90;;;;;;5023226;28;20036;-88
2021/06/29 09:19:11;;;;;;;36.20;25.67;;;19.40;99.90;;;;;;4990783;28;20034;-87
2021/06/29 09:21:37;;;;;;;45.03;30.88;;;19.40;99.90;;;;;;5023374;28;20046;-89
2021/06/29 09:24:04;;;;;;;48.70;33.97;;;19.40;99.90;;;;;;5023254;28;20106;-89
2021/06/29 09:26:30;;;;;;;44.97;30.77;;;19.30;99.90;;;;;;5006468;28;20042;-90
2021/06/29 09:29:00;;;;;;;48.63;33.90;;;19.40;99.90;;;;;;4990444;28;20034;-89
2021/06/29 09:31:32;;;;;;;47.30;33.30;;;19.50;99.90;;;;;;4990463;28;20046;-90
2021/06/29 09:34:08;;;;;;;46.88;33.00;;;19.50;99.90;;;;;;4990480;28;20072;-87
2021/06/29 09:36:38;;;;;;;47.35;32.08;;;19.60;99.90;;;;;;5022196;28;20085;-89
2021/06/29 09:39:06;;;;;;;;;;;19.60;99.90;;;;;;5006701;28;20071;-89
2021/06/29 09:41:35;;;;;;;41.75;30.27;;;19.60;99.90;;;;;;5006561;28;20398;-86
2021/06/29 09:44:06;;;;;;;38.38;28.20;;;19.70;99.90;;;;;;4990221;28;20050;-88
2021/06/29 09:46:33;;;;;;;37.90;28.90;;;19.70;99.90;;;;;;5007385;28;20034;-88
2021/06/29 09:49:05;;;;;;;37.42;26.63;;;19.70;99.90;;;;;;5006131;28;20058;-89
2021/06/29 09:51:34;;;;;;;41.78;31.52;;;19.70;99.90;;;;;;4990221;28;20030;-87
2021/06/29 09:54:06;;;;;;;42.85;29.90;;;19.70;99.90;;;;;;4989843;28;20054;-87
2021/06/29 09:56:38;;;;;;;44.03;31.02;;;19.80;99.90;;;;;;4989905;28;20470;-87
2021/06/29 09:59:14;;;;;;;47.88;33.97;;;19.90;99.90;;;;;;4988992;28;20049;-86
2021/06/29 10:01:40;;;;;;;57.97;39.05;;;19.90;99.90;;;;;;4999091;28;20069;-85
2021/06/29 10:04:06;;;;;;;55.15;38.53;;;19.60;99.90;;;;;;4989894;28;20034;-86
2021/06/29 10:06:34;;;;;;;55.03;37.58;;;19.70;99.90;;;;;;5006496;28;20056;-88
2021/06/29 10:09:04;;;;;;;53.88;37.97;;;19.80;99.90;;;;;;4979541;28;20054;-88
2021/06/29 10:11:33;;;;;;;51.88;35.72;;;19.90;99.90;;;;;;4986580;28;20033;-84
2021/06/29 10:14:07;;;;;;;51.10;36.00;;;20.00;99.90;;;;;;5007203;28;20046;-84
2021/06/29 10:16:39;;;;;;;45.45;31.40;;;19.90;99.90;;;;;;5005255;28;20030;-84
2021/06/29 10:21:48;;;;;;;44.75;33.45;;;20.20;99.90;;;;;;5005723;28;20093;-86
2021/06/29 10:24:23;;;;;;;48.67;33.85;;;20.20;99.90;;;;;;5022119;28;20397;-85
2021/06/29 10:26:51;;;;;;;47.10;33.38;;;20.20;99.90;;;;;;5022395;28;20038;-85
2021/06/29 10:29:20;;;;;;;41.30;31.10;;;20.20;99.90;;;;;;5021860;28;20034;-86
2021/06/29 10:31:58;;;;;;;49.83;35.70;;;20.40;99.90;;;;;;5005340;28;20052;-86
2021/06/29 10:34:25;;;;;;;51.78;35.88;;;20.60;99.90;;;;;;5005437;28;20034;-85
2021/06/29 10:36:54;;;;;;;46.38;35.42;;;20.90;99.90;;;;;;5006737;28;20034;-87
2021/06/29 10:39:27;;;;;;;43.33;33.33;;;21.20;99.90;;;;;;5006964;28;20036;-86
2021/06/29 10:42:02;;;;;;;51.67;36.95;;;21.50;99.90;;;;;;5022103;28;20490;-87
2021/06/29 10:44:29;;;;;;;43.65;33.90;;;21.30;99.90;;;;;;5021841;28;20030;-86
2021/06/29 10:46:56;;;;;;;49.63;36.80;;;21.40;99.90;;;;;;5060995;22;20014;-86
2021/06/29 10:49:39;;;;;;;45.45;35.20;;;21.20;99.90;;;;;;5065385;28;20060;-85
2021/06/29 10:52:28;;;;;;;46.60;36.95;;;21.50;99.90;;;;;;5086569;28;20024;-86
2021/06/29 10:54:56;;;;;;;44.67;35.53;;;21.60;99.90;;;;;;5068559;28;20035;-92
2021/06/29 10:57:40;;;;;;;52.13;40.13;;;21.60;99.90;;;;;;5073762;28;20033;-88
2021/06/29 11:00:23;;;;;;;49.05;37.00;;;22.10;99.90;;;;;;5048596;28;20051;-85
2021/06/29 11:03:05;;;;;;;45.90;37.38;;;22.00;99.90;;;;;;5048710;28;20025;-86
2021/06/29 11:05:40;;;;;;;40.33;34.03;;;21.60;99.90;;;;;;5065514;28;20029;-86
2021/06/29 11:08:11;;;;;;;40.50;34.03;;;21.90;99.90;;;;;;5065288;28;20662;-86
2021/06/29 11:10:39;;;;;;;40.03;31.33;;;21.90;99.90;;;;;;5039806;28;20053;-85
2021/06/29 11:13:09;;;;;;;34.15;27.63;;;21.80;99.90;;;;;;5082943;28;20024;-87
2021/06/29 11:15:39;;;;;;;39.60;30.60;;;22.10;99.90;;;;;;5067848;28;20042;-84
2021/06/29 11:18:09;;;;;;;40.55;30.55;;;22.50;99.90;;;;;;5079535;28;20025;-86
2021/06/29 11:20:46;;;;;;;39.42;29.58;;;22.30;99.90;;;;;;5051372;28;20066;-86
2021/06/29 11:23:28;;;;;;;35.65;28.38;;;22.00;99.90;;;;;;5049117;28;20029;-86
2021/06/29 11:25:57;;;;;;;41.30;32.38;;;22.00;99.90;;;;;;5065186;28;20032;-85
2021/06/29 11:28:37;;;;;;;47.33;33.65;;;21.90;99.90;;;;;;5063889;28;20116;-85
2021/06/29 11:31:18;;;;;;;42.20;32.17;;;21.80;99.90;;;;;;5065667;28;20032;-85
2021/06/29 11:33:49;;;;;;;43.85;32.45;;;21.80;99.90;;;;;;5080644;28;20043;-84
2021/06/29 11:36:24;;;;;;;37.33;28.75;;;22.30;99.90;;;;;;5048256;28;20047;-84
2021/06/29 11:38:51;;;;;;;45.08;33.40;;;22.70;99.90;;;;;;5083104;28;20036;-86
2021/06/29 11:41:31;;;;;;;38.90;27.73;;;23.20;99.90;;;;;;5084144;28;20032;-87
2021/06/29 11:44:06;;;;;;;;;;;23.20;99.90;;;;;;5066300;28;20033;-84
2021/06/29 11:46:48;;;;;;;30.23;24.30;;;23.00;99.90;;;;;;5080976;28;19908;-87
2021/06/29 11:49:15;;;;;;;30.85;26.48;;;23.30;99.90;;;;;;5035964;28;20113;-87
2021/06/29 11:52:07;;;;;;;25.00;21.80;;;23.10;99.90;;;;;;5067266;28;20040;-85
2021/06/29 11:54:43;;;;;;;28.60;25.40;;;22.80;99.90;;;;;;5066201;28;20028;-85
2021/06/29 11:57:30;;;;;;;27.42;23.77;;;22.40;99.90;;;;;;5061091;28;20044;-88
2021/06/29 11:59:59;;;;;;;25.63;22.80;;;21.90;99.90;;;;;;5058646;28;20037;-86
2021/06/29 12:02:29;;;;;;;31.15;26.45;;;21.80;99.90;;;;;;5050871;28;20054;-85
2021/06/29 12:05:06;;;;;;;27.30;23.08;;;21.70;99.90;;;;;;5047654;28;20040;-87
2021/06/29 12:07:41;;;;;;;24.83;22.15;;;22.10;99.90;;;;;;5045097;28;20028;-84
2021/06/29 12:10:13;;;;;;;20.48;17.95;;;23.00;99.90;;;;;;5060472;28;20029;-85
2021/06/29 12:12:40;;;;;;;26.23;22.60;;;23.20;99.90;;;;;;5084976;28;20021;-83
2021/06/29 12:15:06;;;;;;;21.10;18.02;;;22.60;99.90;;;;;;5047312;28;20459;-84
2021/06/29 12:17:33;;;;;;;19.73;17.67;;;22.70;99.90;;;;;;5086487;28;20120;-83
2021/06/29 12:20:04;;;;;;;19.05;17.00;;;22.80;99.90;;;;;;5045923;28;20040;-85
2021/06/29 12:22:33;;;;;;;21.23;18.95;;;22.80;99.90;;;;;;5067711;28;20028;-84
2021/06/29 12:24:59;;;;;;;19.73;17.42;;;22.60;99.90;;;;;;5067725;28;20028;-86
2021/06/29 12:27:26;;;;;;;19.15;17.05;;;22.80;99.90;;;;;;5059206;28;20025;-86
2021/06/29 12:29:52;;;;;;;22.17;19.77;;;22.80;99.90;;;;;;5064463;28;20047;-85
2021/06/29 12:32:20;;;;;;;20.27;18.20;;;22.90;99.90;;;;;;5046160;28;20024;-86
2021/06/29 12:34:46;;;;;;;18.77;15.63;;;22.80;99.90;;;;;;5081393;28;20028;-84
2021/06/29 12:37:12;;;;;;;14.60;12.93;;;23.00;99.90;;;;;;5049871;28;20029;-86
2021/06/29 12:39:38;;;;;;;12.57;11.27;;;23.30;99.90;;;;;;5046888;28;20032;-84
2021/06/29 12:42:12;;;;;;;11.63;10.45;;;23.50;99.90;;;;;;5064608;28;20036;-84
2021/06/29 12:44:38;;;;;;;16.27;14.38;;;23.60;99.90;;;;;;5047602;28;20028;-84
2021/06/29 12:47:05;;;;;;;18.45;14.35;;;23.20;99.90;;;;;;5049711;28;20450;-84